Laughlin, Nevada
Current Conditions -  °F | °C
As of 3:55 AM on Tuesday 21 Oct 2014 (Local Time) from KIFP Reporting Station
Clear Clear  
Wind Chill: 72°   Ceiling: Unl
Heat Index: 72°   Visibility: 10mi
Dew Point: 45°   Wind: 0mph
Humidity: 38%   Direction: NA
Pressure: 29.83"   Gusts: NA
Location:  35.15°N, 114.63°W
Report Text: KIFP 211055Z AUTO 00000KT 10SM CLR 22/07 A2983 RMK AO2 PWINO
Loading
Personal Weather Stations






























Interactive Weather Map New forecast layout! Learn more

10-Day Weather Forecast

Advertisements
Track Severe Weather on mobile